Time;durP1;ratioP1;P1;durP2;ratioP2;P2;SDS_P1;SDS_P2;PMS_P1;PMS_P2;Temp;Humidity;BMP_temperature;BMP_pressure;BME280_temperature;BME280_humidity;BME280_pressure;Samples;Min_cycle;Max_cycle;Signal;HPM_P1;HPM_P2
2020/12/26 00:01:06;;;;;;;3.22;2.28;;;9.50;84.20;;;;;;4932568;29;20079;-51
2020/12/26 00:03:32;;;;;;;4.20;2.30;;;9.50;84.10;;;;;;4917783;29;20498;-51
2020/12/26 00:05:57;;;;;;;3.33;1.95;;;9.50;84.10;;;;;;4917997;29;20032;-51
2020/12/26 00:08:23;;;;;;;2.17;1.83;;;9.50;84.10;;;;;;4918015;29;20035;-51
2020/12/26 00:10:49;;;;;;;5.85;2.45;;;9.50;84.10;;;;;;4917657;29;20028;-51
2020/12/26 00:13:14;;;;;;;3.58;2.00;;;9.50;84.10;;;;;;4917761;29;20469;-51
2020/12/26 00:15:40;;;;;;;3.67;2.58;;;9.50;84.10;;;;;;4917847;29;20024;-51
2020/12/26 00:18:05;;;;;;;3.20;2.20;;;9.50;84.20;;;;;;4918035;29;20043;-51
2020/12/26 00:20:31;;;;;;;3.90;2.08;;;9.50;84.20;;;;;;4917688;29;20027;-51
2020/12/26 00:22:57;;;;;;;3.65;2.25;;;9.50;84.20;;;;;;4917349;29;20110;-51
2020/12/26 00:25:22;;;;;;;4.55;2.53;;;9.50;84.10;;;;;;4917422;29;20141;-51
2020/12/26 00:27:48;;;;;;;3.20;2.20;;;9.40;84.10;;;;;;4917637;29;20043;-51
2020/12/26 00:30:14;;;;;;;4.03;2.40;;;9.40;84.10;;;;;;4917813;29;20024;-51
2020/12/26 00:32:39;;;;;;;5.10;2.67;;;9.50;84.20;;;;;;4917216;29;20072;-51
2020/12/26 00:35:05;;;;;;;3.25;2.10;;;9.40;83.90;;;;;;4917404;29;20039;-51
2020/12/26 00:37:30;;;;;;;4.97;2.58;;;9.40;84.00;;;;;;4917497;29;20025;-51
2020/12/26 00:39:56;;;;;;;3.20;2.40;;;9.40;83.90;;;;;;4917056;29;20059;-51
2020/12/26 00:42:22;;;;;;;5.25;2.17;;;9.40;84.00;;;;;;4917399;29;20020;-51
2020/12/26 00:44:48;;;;;;;4.70;2.63;;;9.40;83.90;;;;;;4917434;29;20043;-51
2020/12/26 00:47:13;;;;;;;8.07;3.53;;;9.40;84.00;;;;;;4917400;29;20054;-51
2020/12/26 00:49:39;;;;;;;9.93;2.92;;;9.40;83.90;;;;;;4917446;29;20421;-51
2020/12/26 00:52:04;;;;;;;6.60;3.08;;;9.40;84.00;;;;;;4920902;29;20061;-51
2020/12/26 00:54:30;;;;;;;5.72;3.10;;;9.40;83.90;;;;;;4935989;29;20339;-51
2020/12/26 00:56:56;;;;;;;9.10;3.35;;;9.40;83.90;;;;;;4936289;29;20090;-51
2020/12/26 00:59:21;;;;;;;4.68;2.65;;;9.40;83.90;;;;;;4936005;29;20346;-52
2020/12/26 01:01:55;;;;;;;5.55;2.95;;;9.40;83.90;;;;;;4935779;29;20039;-51
2020/12/26 01:04:21;;;;;;;6.18;2.47;;;9.40;84.00;;;;;;4936015;29;20039;-51
2020/12/26 01:06:52;;;;;;;7.95;2.88;;;9.40;83.70;;;;;;4935880;29;20040;-51
2020/12/26 01:09:18;;;;;;;4.00;2.50;;;9.40;83.80;;;;;;4935828;29;20024;-52
2020/12/26 01:11:44;;;;;;;4.60;2.35;;;9.40;83.90;;;;;;4935687;29;20473;-51
2020/12/26 01:14:09;;;;;;;5.15;2.83;;;9.40;83.90;;;;;;4936044;29;20445;-51
2020/12/26 01:16:35;;;;;;;4.28;2.88;;;9.40;83.80;;;;;;4935750;29;20054;-52
2020/12/26 01:19:00;;;;;;;6.53;2.55;;;9.40;83.90;;;;;;4935832;29;20031;-51
2020/12/26 01:21:26;;;;;;;3.88;2.30;;;9.40;83.80;;;;;;4935373;29;20532;-51
2020/12/26 01:23:52;;;;;;;4.57;2.60;;;9.40;83.60;;;;;;4950211;29;20038;-51
2020/12/26 01:26:17;;;;;;;5.43;3.10;;;9.40;83.70;;;;;;4935541;29;20445;-51
2020/12/26 01:28:45;;;;;;;4.28;2.55;;;9.40;83.90;;;;;;4935870;29;20380;-51
2020/12/26 01:31:12;;;;;;;7.43;2.45;;;9.40;83.70;;;;;;4935410;29;20072;-51
2020/12/26 01:33:37;;;;;;;3.40;2.22;;;9.40;83.70;;;;;;4935347;29;20083;-51
2020/12/26 01:36:03;;;;;;;4.78;2.35;;;9.40;83.80;;;;;;4935453;29;20035;-51
2020/12/26 01:38:29;;;;;;;3.47;2.45;;;9.40;83.80;;;;;;4935430;29;20521;-51
2020/12/26 01:40:54;;;;;;;7.63;2.85;;;9.40;83.80;;;;;;4935500;29;20028;-52
2020/12/26 01:43:20;;;;;;;5.55;2.88;;;9.40;83.70;;;;;;4935137;29;20361;-52
2020/12/26 01:45:46;;;;;;;6.72;2.33;;;9.40;83.70;;;;;;4935331;29;20062;-52
2020/12/26 01:48:15;;;;;;;5.47;2.60;;;9.30;83.70;;;;;;4950012;29;20016;-51
2020/12/26 01:50:41;;;;;;;5.72;2.63;;;9.30;83.70;;;;;;4935337;29;20055;-51
2020/12/26 01:53:11;;;;;;;4.65;2.70;;;9.30;83.60;;;;;;4921875;29;20068;-51
2020/12/26 01:55:38;;;;;;;3.58;2.78;;;9.30;83.60;;;;;;4916255;29;20371;-51
2020/12/26 01:58:04;;;;;;;4.55;2.75;;;9.30;83.60;;;;;;4916507;29;20032;-51
2020/12/26 02:00:30;;;;;;;3.70;2.92;;;9.30;83.60;;;;;;4930057;29;20461;-51
2020/12/26 02:02:55;;;;;;;4.30;2.97;;;9.30;83.70;;;;;;4934731;29;20045;-51
2020/12/26 02:05:21;;;;;;;6.93;3.35;;;9.30;83.60;;;;;;4938663;29;20055;-52
2020/12/26 02:07:47;;;;;;;5.05;3.25;;;9.30;83.60;;;;;;4939314;29;20030;-51
2020/12/26 02:10:14;;;;;;;5.85;2.92;;;9.30;84.30;;;;;;4939097;29;20039;-51
2020/12/26 02:12:40;;;;;;;7.78;3.40;;;9.30;83.60;;;;;;4938957;29;20071;-52
2020/12/26 02:15:06;;;;;;;2.78;1.92;;;9.30;83.40;;;;;;4939147;29;20361;-52
2020/12/26 02:17:32;;;;;;;4.07;2.22;;;9.30;83.60;;;;;;4938916;29;20449;-51
2020/12/26 02:19:58;;;;;;;7.15;2.92;;;9.30;83.60;;;;;;4938807;29;20102;-52
2020/12/26 02:22:23;;;;;;;4.10;2.63;;;9.30;83.60;;;;;;4938974;29;20027;-51
2020/12/26 02:24:49;;;;;;;4.72;3.05;;;9.30;83.50;;;;;;4939243;29;20342;-52
2020/12/26 02:27:15;;;;;;;4.15;2.22;;;9.30;83.60;;;;;;4938752;29;20028;-51
2020/12/26 02:29:40;;;;;;;3.85;2.63;;;9.30;83.50;;;;;;4938847;29;20020;-51
2020/12/26 02:32:06;;;;;;;5.90;2.50;;;9.30;83.30;;;;;;4938265;29;20122;-51
2020/12/26 02:34:31;;;;;;;4.28;2.45;;;9.30;83.60;;;;;;4939034;29;20027;-52
2020/12/26 02:36:57;;;;;;;4.55;2.63;;;9.30;83.40;;;;;;4938365;29;20102;-51
2020/12/26 02:39:23;;;;;;;3.90;2.50;;;9.20;83.30;;;;;;4938839;29;20023;-52
2020/12/26 02:41:49;;;;;;;4.10;2.58;;;9.30;83.50;;;;;;4942638;29;20445;-52
2020/12/26 02:44:14;;;;;;;3.20;2.60;;;9.30;83.40;;;;;;4940298;29;20334;-51
2020/12/26 02:46:41;;;;;;;5.78;2.75;;;9.30;83.30;;;;;;4957595;29;20035;-52
2020/12/26 02:49:06;;;;;;;6.00;2.53;;;9.20;83.30;;;;;;4957407;29;20035;-52
2020/12/26 02:51:35;;;;;;;4.85;3.13;;;9.30;83.30;;;;;;4956392;29;20040;-51
2020/12/26 02:54:00;;;;;;;4.07;2.40;;;9.30;83.30;;;;;;4938395;29;20035;-51
2020/12/26 02:56:26;;;;;;;5.78;2.85;;;9.30;83.30;;;;;;4938255;29;20036;-51
2020/12/26 02:58:52;;;;;;;7.43;2.92;;;9.30;83.20;;;;;;4938324;29;20229;-52
2020/12/26 03:01:17;;;;;;;5.90;2.80;;;9.30;83.20;;;;;;4937674;29;20067;-52
2020/12/26 03:03:43;;;;;;;4.20;2.80;;;9.30;83.20;;;;;;4938036;29;20032;-52
2020/12/26 03:06:12;;;;;;;6.05;3.38;;;9.20;83.10;;;;;;4938125;29;20027;-52
2020/12/26 03:08:38;;;;;;;5.38;2.75;;;9.20;83.30;;;;;;4938379;29;20099;-51
2020/12/26 03:11:04;;;;;;;4.93;2.95;;;9.20;83.10;;;;;;4920978;29;20028;-52
2020/12/26 03:13:31;;;;;;;5.22;3.10;;;9.30;83.20;;;;;;4937699;29;20027;-51
2020/12/26 03:15:58;;;;;;;4.75;3.00;;;9.20;83.10;;;;;;4937208;29;20051;-51
2020/12/26 03:18:23;;;;;;;5.28;2.92;;;9.20;83.10;;;;;;4934186;29;20103;-51
2020/12/26 03:20:49;;;;;;;8.30;3.10;;;9.20;83.10;;;;;;4937659;29;20124;-51
2020/12/26 03:23:14;;;;;;;6.75;3.25;;;9.20;83.10;;;;;;4937974;29;20039;-51
2020/12/26 03:25:40;;;;;;;5.30;2.83;;;9.20;83.10;;;;;;4934690;29;20047;-51
2020/12/26 03:28:06;;;;;;;5.20;3.28;;;9.20;83.00;;;;;;4944639;29;20031;-52
2020/12/26 03:30:31;;;;;;;5.47;3.13;;;9.20;83.10;;;;;;4937898;29;20023;-51
2020/12/26 03:32:57;;;;;;;5.00;3.15;;;9.20;83.10;;;;;;4937397;29;20458;-52
2020/12/26 03:35:23;;;;;;;6.20;3.25;;;9.20;83.00;;;;;;4937360;29;20048;-51
2020/12/26 03:37:48;;;;;;;6.85;3.25;;;9.20;83.10;;;;;;4937560;29;20082;-52
2020/12/26 03:40:14;;;;;;;3.63;2.65;;;9.20;83.00;;;;;;4937319;29;20063;-51
2020/12/26 03:42:39;;;;;;;7.57;3.22;;;9.20;83.00;;;;;;4937025;29;20047;-51
2020/12/26 03:45:05;;;;;;;5.80;3.47;;;9.20;82.90;;;;;;4937137;29;20032;-51
2020/12/26 03:47:31;;;;;;;6.13;3.35;;;9.20;82.90;;;;;;4937403;29;20019;-51
2020/12/26 03:49:57;;;;;;;3.67;2.50;;;9.10;82.90;;;;;;4937166;29;20035;-51
2020/12/26 03:52:23;;;;;;;5.60;2.67;;;9.20;83.00;;;;;;4929638;29;20040;-52
2020/12/26 03:54:48;;;;;;;4.68;2.90;;;9.20;82.90;;;;;;4918546;29;20347;-51
2020/12/26 03:57:14;;;;;;;5.95;2.88;;;9.20;82.70;;;;;;4917926;29;20036;-51
2020/12/26 03:59:40;;;;;;;3.92;2.53;;;9.20;82.80;;;;;;4917503;29;20166;-52
2020/12/26 04:02:06;;;;;;;6.20;2.38;;;9.20;82.80;;;;;;4916330;29;20039;-51
2020/12/26 04:04:33;;;;;;;3.22;2.55;;;9.20;82.80;;;;;;4917496;29;20020;-51
2020/12/26 04:06:58;;;;;;;3.67;2.72;;;9.20;82.90;;;;;;4917521;29;20083;-51
2020/12/26 04:09:24;;;;;;;3.17;2.50;;;9.20;82.70;;;;;;4917443;29;20033;-51
2020/12/26 04:11:50;;;;;;;4.78;2.72;;;9.20;82.70;;;;;;4917770;29;20128;-51
2020/12/26 04:14:15;;;;;;;3.53;2.33;;;9.20;82.60;;;;;;4917854;29;20038;-52
2020/12/26 04:16:41;;;;;;;6.50;3.15;;;9.20;82.60;;;;;;4918146;29;20465;-51
2020/12/26 04:19:07;;;;;;;4.03;2.50;;;9.20;82.70;;;;;;4917942;29;20111;-51
2020/12/26 04:21:33;;;;;;;3.60;2.20;;;9.20;82.60;;;;;;4917617;29;20032;-51
2020/12/26 04:23:58;;;;;;;4.70;2.35;;;9.20;82.70;;;;;;4917680;29;20533;-51
2020/12/26 04:26:24;;;;;;;5.20;2.55;;;9.20;82.70;;;;;;4917507;29;20060;-52
2020/12/26 04:28:50;;;;;;;5.00;2.88;;;9.20;82.60;;;;;;4916820;29;20036;-51
2020/12/26 04:31:17;;;;;;;4.93;2.72;;;9.20;82.50;;;;;;4917117;29;20083;-51
2020/12/26 04:33:43;;;;;;;5.57;3.72;;;9.20;82.60;;;;;;4917351;29;20136;-51
2020/12/26 04:36:09;;;;;;;3.28;2.45;;;9.20;82.50;;;;;;4917586;29;20115;-51
2020/12/26 04:38:35;;;;;;;5.63;3.03;;;9.20;82.60;;;;;;4917462;29;20115;-51
2020/12/26 04:41:00;;;;;;;5.90;3.13;;;9.20;82.50;;;;;;4917208;29;20040;-51
2020/12/26 04:43:27;;;;;;;6.10;3.05;;;9.20;82.40;;;;;;4917399;29;20035;-52
2020/12/26 04:45:57;;;;;;;4.82;2.75;;;9.20;82.50;;;;;;4917308;29;20035;-51
2020/12/26 04:48:23;;;;;;;;;;;9.20;82.50;;;;;;4917824;29;20032;-52
2020/12/26 04:50:52;;;;;;;5.68;2.50;;;9.20;82.50;;;;;;4917197;29;19919;-51
2020/12/26 04:53:19;;;;;;;5.05;2.53;;;9.20;82.40;;;;;;4931389;29;20079;-51
2020/12/26 04:55:47;;;;;;;4.97;2.92;;;9.20;82.40;;;;;;4935935;29;20035;-51
2020/12/26 04:58:14;;;;;;;3.78;2.47;;;9.20;82.30;;;;;;4950793;29;20114;-52
2020/12/26 05:00:40;;;;;;;3.78;2.58;;;9.10;82.30;;;;;;4936058;29;20032;-51
2020/12/26 05:03:10;;;;;;;6.63;2.83;;;9.20;82.30;;;;;;4935767;29;20051;-51
2020/12/26 05:05:43;;;;;;;6.40;2.72;;;9.20;82.40;;;;;;4935959;29;20111;-51
2020/12/26 05:08:11;;;;;;;3.13;2.28;;;9.10;82.30;;;;;;4935852;29;20031;-51
2020/12/26 05:10:38;;;;;;;4.63;2.67;;;9.20;82.20;;;;;;4935790;29;20422;-51
2020/12/26 05:13:06;;;;;;;4.85;2.75;;;9.20;82.20;;;;;;4935182;29;20374;-51
2020/12/26 05:15:32;;;;;;;5.03;3.10;;;9.20;82.20;;;;;;4919136;29;20024;-51
2020/12/26 05:17:57;;;;;;;7.20;3.35;;;9.20;82.10;;;;;;4935834;29;20083;-51
2020/12/26 05:20:24;;;;;;;7.03;3.25;;;9.20;82.10;;;;;;4935695;29;20047;-51
2020/12/26 05:23:22;;;;;;;8.52;3.28;;;9.20;82.00;;;;;;4935166;29;20508;-51
2020/12/26 05:25:50;;;;;;;5.80;3.15;;;9.20;82.00;;;;;;4903475;29;20050;-51
2020/12/26 05:28:18;;;;;;;10.10;2.88;;;9.20;81.90;;;;;;4935810;29;20020;-51
2020/12/26 05:30:47;;;;;;;5.50;2.95;;;9.20;82.00;;;;;;4935527;29;20050;-51
2020/12/26 05:33:13;;;;;;;4.57;2.63;;;9.20;81.90;;;;;;4935119;29;20063;-51
2020/12/26 05:35:50;;;;;;;11.07;3.38;;;9.20;82.00;;;;;;4935555;29;20354;-51
2020/12/26 05:38:21;;;;;;;7.88;3.10;;;9.20;81.80;;;;;;4935246;29;20036;-51
2020/12/26 05:40:49;;;;;;;6.25;3.28;;;9.20;81.80;;;;;;4935580;29;20079;-51
2020/12/26 05:43:19;;;;;;;6.95;3.15;;;9.20;81.80;;;;;;4935182;29;20027;-51
2020/12/26 05:45:45;;;;;;;6.45;2.97;;;9.20;81.70;;;;;;4935164;29;20027;-51
2020/12/26 05:48:15;;;;;;;5.25;2.97;;;9.10;81.70;;;;;;4935582;29;20075;-51
2020/12/26 05:50:42;;;;;;;5.25;3.08;;;9.20;81.80;;;;;;4935522;29;20071;-51
2020/12/26 05:53:11;;;;;;;4.70;2.70;;;9.20;81.70;;;;;;4921568;29;20513;-51
2020/12/26 05:55:42;;;;;;;6.75;3.25;;;9.20;81.70;;;;;;4916414;29;20098;-51
2020/12/26 05:58:08;;;;;;;6.63;3.30;;;9.10;81.70;;;;;;4916300;29;20020;-51
2020/12/26 06:00:38;;;;;;;4.53;2.90;;;9.20;81.70;;;;;;4916182;29;20126;-51
2020/12/26 06:03:26;;;;;;;5.32;2.85;;;9.10;81.60;;;;;;4916204;29;20028;-51
2020/12/26 06:05:56;;;;;;;5.65;2.60;;;9.10;81.60;;;;;;4916367;29;20461;-51
2020/12/26 06:08:23;;;;;;;4.38;2.83;;;9.20;81.60;;;;;;4916364;29;20075;-51
2020/12/26 06:10:54;;;;;;;3.90;2.78;;;9.20;81.70;;;;;;4915973;29;20040;-51
2020/12/26 06:13:22;;;;;;;8.07;3.22;;;9.10;81.70;;;;;;4915950;29;20082;-50
2020/12/26 06:15:56;;;;;;;6.40;3.25;;;9.20;81.60;;;;;;4916169;29;20469;-51
2020/12/26 06:18:24;;;;;;;8.65;2.63;;;9.20;81.50;;;;;;4916419;29;20032;-51
2020/12/26 06:20:53;;;;;;;4.80;2.60;;;9.20;81.50;;;;;;4916501;29;20082;-51
2020/12/26 06:23:20;;;;;;;7.25;3.55;;;9.20;81.50;;;;;;4915918;29;20036;-51
2020/12/26 06:25:46;;;;;;;6.35;2.78;;;9.20;81.50;;;;;;4916168;29;20032;-51
2020/12/26 06:28:30;;;;;;;8.55;3.10;;;9.20;81.60;;;;;;4916308;29;20037;-51
2020/12/26 06:31:00;;;;;;;5.20;2.42;;;9.10;81.50;;;;;;4915951;29;20569;-51
2020/12/26 06:33:29;;;;;;;5.55;2.78;;;9.20;81.60;;;;;;4930775;29;20036;-51
2020/12/26 06:35:59;;;;;;;5.60;3.08;;;9.20;82.30;;;;;;4921093;29;20067;-51
2020/12/26 06:38:29;;;;;;;6.82;3.45;;;9.20;81.50;;;;;;4934410;29;20175;-51
2020/12/26 06:41:13;;;;;;;7.20;2.88;;;9.20;81.40;;;;;;4934878;29;20109;-51
2020/12/26 06:43:47;;;;;;;3.85;2.55;;;9.20;81.50;;;;;;4934593;29;20038;-50
2020/12/26 06:46:22;;;;;;;5.30;3.08;;;9.20;81.50;;;;;;4934446;29;20556;-51
2020/12/26 06:48:49;;;;;;;5.10;2.67;;;9.10;81.70;;;;;;4934665;29;20083;-51
2020/12/26 06:51:41;;;;;;;5.18;2.90;;;9.10;81.50;;;;;;4936013;29;21982;-51
2020/12/26 06:54:07;;;;;;;5.13;2.95;;;9.10;81.40;;;;;;4912418;29;20491;-50
2020/12/26 06:56:33;;;;;;;6.80;3.65;;;9.20;81.50;;;;;;4919480;29;20028;-51
2020/12/26 06:59:09;;;;;;;4.50;2.95;;;9.20;81.40;;;;;;4919240;29;20036;-51
2020/12/26 07:01:40;;;;;;;8.07;2.72;;;9.20;81.30;;;;;;4918599;29;20326;-51
2020/12/26 07:04:12;;;;;;;5.07;2.75;;;9.10;81.20;;;;;;4919253;29;20016;-51
2020/12/26 07:06:39;;;;;;;3.92;2.15;;;9.20;81.30;;;;;;4918991;29;20028;-51
2020/12/26 07:09:05;;;;;;;5.57;2.80;;;9.20;81.30;;;;;;4918965;29;20036;-51
2020/12/26 07:11:31;;;;;;;4.47;2.42;;;9.20;81.20;;;;;;4918702;29;20043;-51
2020/12/26 07:13:57;;;;;;;6.75;3.25;;;9.20;81.30;;;;;;4919220;29;20043;-51
2020/12/26 07:16:45;;;;;;;5.55;3.10;;;9.20;81.20;;;;;;4919054;29;20047;-51
2020/12/26 07:19:42;;;;;;;6.63;2.63;;;9.10;81.20;;;;;;4933997;29;20019;-51
2020/12/26 07:22:30;;;;;;;4.70;2.45;;;9.20;81.30;;;;;;4921166;29;20110;-51
2020/12/26 07:25:06;;;;;;;4.35;2.80;;;9.20;81.30;;;;;;4919015;29;20043;-51
2020/12/26 07:27:32;;;;;;;4.93;2.92;;;9.10;81.30;;;;;;4918721;29;20021;-51
2020/12/26 07:30:17;;;;;;;5.88;3.17;;;9.20;81.40;;;;;;4918481;29;20111;-51
2020/12/26 07:32:51;;;;;;;8.00;3.10;;;9.20;81.30;;;;;;4918375;29;20047;-51
2020/12/26 07:35:23;;;;;;;6.43;2.95;;;9.20;81.20;;;;;;4918805;29;20032;-51
2020/12/26 07:37:55;;;;;;;6.18;3.25;;;9.20;81.10;;;;;;4928570;29;20051;-51
2020/12/26 07:40:26;;;;;;;7.63;3.67;;;9.20;81.00;;;;;;4935140;29;20353;-50
2020/12/26 07:42:52;;;;;;;6.35;3.10;;;9.20;81.10;;;;;;4932818;29;20052;-51
2020/12/26 07:45:21;;;;;;;10.48;3.05;;;9.10;81.10;;;;;;4933743;29;20082;-51
2020/12/26 07:47:50;;;;;;;9.93;3.53;;;9.20;81.10;;;;;;4935155;29;20036;-51
2020/12/26 07:50:17;;;;;;;8.95;3.92;;;9.20;81.20;;;;;;4932414;29;20042;-51
2020/12/26 07:52:51;;;;;;;29.10;4.70;;;9.20;81.20;;;;;;4928290;29;20036;-51
2020/12/26 07:55:17;;;;;;;10.68;4.75;;;9.20;81.20;;;;;;4932566;29;20027;-51
2020/12/26 07:57:44;;;;;;;6.75;4.18;;;9.20;81.20;;;;;;4935860;29;20505;-51
2020/12/26 08:00:24;;;;;;;8.73;3.63;;;9.20;81.30;;;;;;4933466;29;20027;-51
2020/12/26 08:02:57;;;;;;;8.23;3.92;;;9.20;81.20;;;;;;4934048;29;20032;-51
2020/12/26 08:05:25;;;;;;;10.10;4.30;;;9.20;81.30;;;;;;4926287;29;20473;-51
2020/12/26 08:07:51;;;;;;;7.03;3.70;;;9.20;81.40;;;;;;4925103;29;20036;-51
2020/12/26 08:10:18;;;;;;;9.93;4.50;;;9.20;81.40;;;;;;4932645;29;20083;-51
2020/12/26 08:13:02;;;;;;;7.07;4.03;;;9.20;81.30;;;;;;4935992;29;20035;-51
2020/12/26 08:15:29;;;;;;;7.03;3.55;;;9.20;81.40;;;;;;4934660;29;20059;-51
2020/12/26 08:18:00;;;;;;;5.85;3.40;;;9.20;81.30;;;;;;4931530;29;20037;-51
2020/12/26 08:20:28;;;;;;;6.75;3.63;;;9.20;81.30;;;;;;4919450;29;20031;-51
2020/12/26 08:22:54;;;;;;;8.65;3.38;;;9.30;81.50;;;;;;4932947;29;20028;-51
2020/12/26 08:25:26;;;;;;;6.57;3.65;;;9.30;81.60;;;;;;4935749;29;20103;-51
2020/12/26 08:27:52;;;;;;;6.20;3.58;;;9.30;81.80;;;;;;4948456;29;20449;-51
2020/12/26 08:30:32;;;;;;;6.97;3.97;;;9.30;81.80;;;;;;4951753;29;20030;-51
2020/12/26 08:33:09;;;;;;;6.47;3.05;;;9.40;81.90;;;;;;4936155;29;20492;-51
2020/12/26 08:35:40;;;;;;;8.25;3.10;;;9.40;81.70;;;;;;4936050;29;20028;-51
2020/12/26 08:38:11;;;;;;;7.15;3.55;;;9.40;82.00;;;;;;4936242;29;20036;-51
2020/12/26 08:40:41;;;;;;;4.93;3.17;;;9.40;81.70;;;;;;4935829;29;20028;-51
2020/12/26 08:43:14;;;;;;;6.60;3.22;;;9.40;81.70;;;;;;4936268;29;20036;-51
2020/12/26 08:45:40;;;;;;;8.80;3.72;;;9.40;82.00;;;;;;4935700;29;20115;-51
2020/12/26 08:48:17;;;;;;;7.40;3.50;;;9.40;81.90;;;;;;4936159;29;20039;-51
2020/12/26 08:50:52;;;;;;;7.03;3.83;;;9.50;81.90;;;;;;4936008;29;20032;-51
2020/12/26 08:53:21;;;;;;;14.00;4.25;;;9.50;82.00;;;;;;4935595;29;20039;-50
2020/12/26 08:55:48;;;;;;;8.70;3.47;;;9.50;81.90;;;;;;4935974;29;20023;-51
2020/12/26 08:58:24;;;;;;;8.40;4.22;;;9.50;82.00;;;;;;4935901;29;20038;-51
2020/12/26 09:00:50;;;;;;;8.13;4.30;;;9.50;82.20;;;;;;4935574;29;20306;-51
2020/12/26 09:03:20;;;;;;;6.80;3.55;;;9.50;82.20;;;;;;4935722;29;20032;-51
2020/12/26 09:05:46;;;;;;;7.65;4.13;;;9.50;82.50;;;;;;4935691;29;20335;-51
2020/12/26 09:08:12;;;;;;;9.65;4.72;;;9.50;82.40;;;;;;4935503;29;20485;-51
2020/12/26 09:10:39;;;;;;;7.15;3.67;;;9.50;82.60;;;;;;4935352;29;20032;-51
2020/12/26 09:13:10;;;;;;;7.97;4.00;;;9.50;82.10;;;;;;4933561;29;20040;-51
2020/12/26 09:15:53;;;;;;;7.82;3.15;;;9.50;82.50;;;;;;4934863;29;20130;-51
2020/12/26 09:18:26;;;;;;;6.13;3.60;;;9.50;82.50;;;;;;4934891;29;20036;-51
2020/12/26 09:20:52;;;;;;;3.28;2.25;;;9.50;82.10;;;;;;4934165;29;20031;-51
2020/12/26 09:23:19;;;;;;;1.75;1.40;;;9.50;82.20;;;;;;4935083;29;20417;-51
2020/12/26 09:25:45;;;;;;;5.35;3.25;;;9.60;82.00;;;;;;4935587;29;20140;-51
2020/12/26 09:28:10;;;;;;;6.45;4.03;;;9.60;81.70;;;;;;4935300;29;20026;-51
2020/12/26 09:30:36;;;;;;;6.95;3.92;;;9.60;81.60;;;;;;4935201;29;20115;-51
2020/12/26 09:33:02;;;;;;;6.15;3.53;;;9.70;81.00;;;;;;4935055;29;20055;-51
2020/12/26 09:35:30;;;;;;;9.10;3.78;;;9.70;81.30;;;;;;4935832;29;20075;-51
2020/12/26 09:37:59;;;;;;;9.73;4.65;;;9.70;80.80;;;;;;4918542;29;20465;-51
2020/12/26 09:40:29;;;;;;;8.88;4.78;;;9.70;81.90;;;;;;4935328;29;20357;-51
2020/12/26 09:42:55;;;;;;;7.50;3.72;;;9.70;80.10;;;;;;4935336;29;20258;-51
2020/12/26 09:45:21;;;;;;;7.57;3.63;;;9.80;80.40;;;;;;4933580;29;20468;-50
2020/12/26 09:47:47;;;;;;;8.75;4.85;;;9.80;79.90;;;;;;4935422;29;20040;-51
2020/12/26 09:50:12;;;;;;;8.68;4.00;;;9.80;80.00;;;;;;4934482;29;20031;-51
2020/12/26 09:52:38;;;;;;;8.85;5.20;;;9.90;80.00;;;;;;4933997;29;20388;-51
2020/12/26 09:55:07;;;;;;;10.38;4.18;;;9.90;80.30;;;;;;4917664;29;20397;-51
2020/12/26 09:57:33;;;;;;;13.13;4.25;;;9.80;80.60;;;;;;4935119;29;20032;-51
2020/12/26 09:59:59;;;;;;;10.68;4.47;;;9.80;81.00;;;;;;4933497;29;20035;-51
2020/12/26 10:02:25;;;;;;;10.80;3.72;;;9.70;81.00;;;;;;4949475;29;20046;-51
2020/12/26 10:04:50;;;;;;;7.07;3.60;;;9.70;81.40;;;;;;4934285;29;20027;-51
2020/12/26 10:07:19;;;;;;;9.95;4.35;;;9.70;81.40;;;;;;4933790;29;20103;-51
2020/12/26 10:09:45;;;;;;;11.05;5.40;;;9.70;81.20;;;;;;4934565;29;20063;-51
2020/12/26 10:12:11;;;;;;;1.70;1.45;;;9.80;81.50;;;;;;4934393;29;20079;-51
2020/12/26 10:14:37;;;;;;;11.52;4.38;;;9.80;81.30;;;;;;4934812;29;20482;-51
2020/12/26 10:17:03;;;;;;;7.13;2.63;;;9.80;80.90;;;;;;4934474;29;20032;-51
2020/12/26 10:19:29;;;;;;;7.53;3.88;;;9.90;81.40;;;;;;4933191;29;20343;-51
2020/12/26 10:21:54;;;;;;;14.13;5.18;;;9.90;80.80;;;;;;4933847;29;20067;-51
2020/12/26 10:24:20;;;;;;;10.07;4.53;;;10.00;80.70;;;;;;4934580;29;20350;-51
2020/12/26 10:26:46;;;;;;;11.60;5.25;;;10.00;81.30;;;;;;4937519;29;20055;-51
2020/12/26 10:29:12;;;;;;;7.82;4.65;;;10.00;81.50;;;;;;4937071;29;20042;-51
2020/12/26 10:31:37;;;;;;;10.65;5.47;;;10.00;81.40;;;;;;4936685;29;20047;-51
2020/12/26 10:34:03;;;;;;;4.57;3.53;;;9.90;81.40;;;;;;4937512;29;20028;-51
2020/12/26 10:36:28;;;;;;;5.93;3.22;;;9.90;81.60;;;;;;4937999;29;20027;-51
2020/12/26 10:38:54;;;;;;;12.70;4.03;;;9.90;81.30;;;;;;4938367;29;20032;-49
2020/12/26 10:41:21;;;;;;;11.05;5.07;;;9.90;81.40;;;;;;4937664;29;20030;-51
2020/12/26 10:43:46;;;;;;;7.15;4.03;;;9.90;82.10;;;;;;4937768;29;20036;-51
2020/12/26 10:46:12;;;;;;;12.93;4.65;;;10.00;82.20;;;;;;4938371;29;20043;-51
2020/12/26 10:48:39;;;;;;;5.32;3.78;;;10.10;82.20;;;;;;4938094;29;20047;-51
2020/12/26 10:51:05;;;;;;;8.13;4.47;;;10.10;82.00;;;;;;4938218;29;20038;-51
2020/12/26 10:53:31;;;;;;;6.88;3.75;;;10.10;81.80;;;;;;4937951;29;20040;-51
2020/12/26 10:55:57;;;;;;;6.13;3.58;;;10.10;81.90;;;;;;4938592;29;20032;-51
2020/12/26 10:58:22;;;;;;;9.27;4.25;;;10.00;82.20;;;;;;4937950;29;20024;-51
2020/12/26 11:00:48;;;;;;;5.82;3.22;;;10.00;82.40;;;;;;4938146;29;20086;-51
2020/12/26 11:03:14;;;;;;;10.40;3.90;;;10.00;82.50;;;;;;4937834;29;20028;-51
2020/12/26 11:05:39;;;;;;;11.32;4.53;;;10.10;80.70;;;;;;4952789;29;20024;-51
2020/12/26 11:08:05;;;;;;;6.22;3.63;;;10.10;80.90;;;;;;4938007;29;20028;-51
2020/12/26 11:10:31;;;;;;;7.18;3.17;;;10.20;80.40;;;;;;4938019;29;20061;-51
2020/12/26 11:12:56;;;;;;;9.40;3.70;;;10.30;80.50;;;;;;4937801;29;20130;-51
2020/12/26 11:15:22;;;;;;;9.95;3.97;;;10.40;80.60;;;;;;4937774;29;20438;-51
2020/12/26 11:17:48;;;;;;;9.50;3.80;;;10.40;80.30;;;;;;4938024;29;20031;-51
2020/12/26 11:20:14;;;;;;;11.10;4.25;;;10.40;80.50;;;;;;4937581;29;20047;-51
2020/12/26 11:22:39;;;;;;;5.82;3.53;;;10.50;80.40;;;;;;4922635;29;20063;-51
2020/12/26 11:25:05;;;;;;;8.00;3.58;;;10.60;80.40;;;;;;4918755;29;20035;-51
2020/12/26 11:27:31;;;;;;;12.98;4.03;;;10.60;80.20;;;;;;4918820;29;20362;-51
2020/12/26 11:29:57;;;;;;;9.70;4.50;;;10.70;80.00;;;;;;4918655;29;20028;-51
2020/12/26 11:32:23;;;;;;;12.70;4.63;;;10.70;80.30;;;;;;4918260;29;20040;-51
2020/12/26 11:34:49;;;;;;;9.05;3.28;;;10.70;80.20;;;;;;4918407;29;20032;-51
2020/12/26 11:37:15;;;;;;;7.63;3.38;;;10.70;80.50;;;;;;4917799;29;20036;-51
2020/12/26 11:39:40;;;;;;;5.53;3.45;;;10.60;80.50;;;;;;4918528;29;20079;-51
2020/12/26 11:42:06;;;;;;;7.68;3.83;;;10.50;81.20;;;;;;4918141;29;20083;-51
2020/12/26 11:44:32;;;;;;;8.15;3.92;;;10.60;81.70;;;;;;4921269;29;20023;-51
2020/12/26 11:46:59;;;;;;;6.07;3.03;;;10.50;80.60;;;;;;4937464;29;20461;-51
2020/12/26 11:49:25;;;;;;;9.00;4.55;;;10.50;81.50;;;;;;4937158;29;20066;-51
2020/12/26 11:51:52;;;;;;;8.23;3.95;;;10.50;81.00;;;;;;4936945;29;20064;-51
2020/12/26 11:54:17;;;;;;;5.53;2.17;;;10.50;81.40;;;;;;4920353;29;20051;-51
2020/12/26 11:56:43;;;;;;;5.88;3.05;;;10.60;82.00;;;;;;4937413;29;20441;-51
2020/12/26 11:59:08;;;;;;;4.97;2.60;;;10.60;81.50;;;;;;4936855;29;20091;-52
2020/12/26 12:01:34;;;;;;;1.13;1.00;;;10.60;80.90;;;;;;4936619;29;20107;-51
2020/12/26 12:04:00;;;;;;;5.88;2.65;;;10.70;80.50;;;;;;4936781;29;20048;-51
2020/12/26 12:06:25;;;;;;;7.45;3.47;;;10.70;80.00;;;;;;4937139;29;20034;-51
2020/12/26 12:08:52;;;;;;;2.67;1.75;;;10.70;79.10;;;;;;4936775;29;20030;-51
2020/12/26 12:11:17;;;;;;;4.00;1.92;;;10.70;79.30;;;;;;4936992;29;20024;-51
2020/12/26 12:13:43;;;;;;;4.85;1.92;;;10.70;79.40;;;;;;4937020;29;20362;-51
2020/12/26 12:16:15;;;;;;;3.13;1.95;;;10.70;79.00;;;;;;4936692;29;20056;-51
2020/12/26 12:18:40;;;;;;;1.60;1.50;;;10.70;79.30;;;;;;4936858;29;20421;-51
2020/12/26 12:21:06;;;;;;;3.90;2.22;;;10.70;79.10;;;;;;4936848;29;20047;-51
2020/12/26 12:23:32;;;;;;;8.00;2.00;;;10.60;78.70;;;;;;4936511;29;20028;-51
2020/12/26 12:25:58;;;;;;;7.70;2.80;;;10.60;78.90;;;;;;4936612;29;20059;-51
2020/12/26 12:28:23;;;;;;;11.38;4.25;;;10.60;79.50;;;;;;4936726;29;20028;-51
2020/12/26 12:30:49;;;;;;;8.63;2.25;;;10.60;79.10;;;;;;4936456;29;20036;-51
2020/12/26 12:33:14;;;;;;;0.50;0.50;;;10.70;79.40;;;;;;4936349;29;20040;-48
2020/12/26 12:35:40;;;;;;;7.85;2.75;;;10.70;79.20;;;;;;4936385;29;20016;-49
2020/12/26 12:38:06;;;;;;;3.88;2.15;;;10.70;78.20;;;;;;4936419;29;20027;-49
2020/12/26 12:40:31;;;;;;;1.40;1.25;;;10.50;76.80;;;;;;4936382;29;20020;-49
2020/12/26 12:42:57;;;;;;;2.97;1.63;;;10.40;74.80;;;;;;4918840;29;20036;-50
2020/12/26 12:45:23;;;;;;;1.65;1.02;;;10.20;74.40;;;;;;4936205;29;20411;-49
2020/12/26 12:47:49;;;;;;;3.95;2.22;;;10.00;72.20;;;;;;4935390;29;20028;-49
2020/12/26 12:50:14;;;;;;;2.55;2.15;;;9.80;66.00;;;;;;4935933;29;20067;-49
2020/12/26 12:52:40;;;;;;;2.17;1.98;;;9.70;67.00;;;;;;4935915;29;20078;-49
2020/12/26 12:55:06;;;;;;;7.43;2.75;;;9.40;61.00;;;;;;4936205;29;20020;-49
2020/12/26 12:57:32;;;;;;;4.45;2.28;;;9.30;60.60;;;;;;4935990;29;20377;-49